Saint Barthelemy, St. Barthelemy

4:04 PM AST on July 30, 2014 (GMT -0400)
Cole Bay, St.Maarten (ISINTMAA3) Elev 171 ft | 18.04 °N, 63.08 °W | Change Station

Current weather conditions updated 3 minutes ago

Mostly Cloudy
Mostly Cloudy
83.7 °F
Feels Like 92 °F
N
2.0
Wind Variable Wind from WNW
Gusts 6.0 mph

Tomorrow is forecast to be Cooler than today. A few morning showers.

Today
High -- | Low -- °F
--% Chance of Precip.
Yesterday
High -- | Low -- °F
Precip. -- in
5:49 AM 6:46 PM
Waxing Crescent, 13% visible
Pressure 30.01 in
Visibility 6.2 miles
Clouds Scattered Clouds 1700 ft
Mostly Cloudy 4000 ft
Heat Index 92 °F
Dew Point 75 °F
Humidity 76%
Rainfall 0.14 in
Snow Depth Not available.
UV 6 out of 12
Pollen Not available.
Air Quality Not available.
Flu Activity Not available.
METAR TNCM 301900Z 13010KT 080V150 9999 SCT017TCU BKN040 29/24 Q1016 A3001 RERA TEMPO SHRA RMK JP TO NW

More Conditions Fewer Conditions

Pressure 30.01 in
Visibility 6.2 miles
Clouds Scattered Clouds 1700 ft
Mostly Cloudy 4000 ft
Heat Index 92 °F
Dew Point 75 °F
Humidity 76%
Rainfall 0.14 in
Snow Depth Not available.
UV 6 out of 12
Pollen Not available.
Air Quality Not available.
Flu Activity Not available.
METAR TNCM 301900Z 13010KT 080V150 9999 SCT017TCU BKN040 29/24 Q1016 A3001 RERA TEMPO SHRA RMK JP TO NW

More Conditions Fewer Conditions

10-Day Weather Forecast

Almanac

Astronomy

Jul. 30, 2014 Rise Set
Actual Time 5:49 AM AST 6:46 PM AST
Civil Twilight 5:26 AM AST 7:09 PM AST
Nautical Twilight 4:58 AM AST 7:36 PM AST
Astronomical Twilight 4:30 AM AST 8:04 PM AST
Moon 8:41 AM AST 9:06 PM AST
Length of Visible Light 13h 43m
Length of Day
12h 56m
Tomorrow will be 0m 43s shorter.
Waxing Crescent, 13% of the Moon is Illuminated
Today
Waxing Crescent
Aug 3
First Quarter
Aug 10
Full
Aug 17
Last Quarter
Aug 25
New

Community

WunderPhotos

Upload Photos

1,739,170 photos uploaded!

WunderBlogs® & News

Nearby

Snow Depth

Not available.

Earthquake Activity

City Distance Mag. Time & Date
No recent earthquake activity has been reported nearby.
Minimum magnitude displayed is 2.5.

Coastal Water Temperatures

Place Temperature
No Stations Reporting

Nearby Weather Stations

Station Location Temp. Heat Index Dew Point Humidity Wind Precip. Elev Updated Type
Cole Bay, St.Maarten, Cole Bay 83.7 °F 92 °F 75 °F 76% WNW  at  2.0 mph 0.00 in / hr 171 ft 4:00 PM AST Normal
Concordia, Saint-Martin 89.8 °F 102 °F 76 °F 65% South  at  4.9 mph 0.00 in / hr 85 ft 4:03 PM AST Rapid Fire

Show More Stations Show Fewer Stations